createdAt,value
2023-03-30T00:01:58.952Z,17.30
2023-03-30T00:04:28.439Z,17.20
2023-03-30T00:06:57.402Z,17.10
2023-03-30T00:09:30.798Z,17.10
2023-03-30T00:12:03.076Z,17.00
2023-03-30T00:14:31.833Z,16.90
2023-03-30T00:17:00.724Z,16.90
2023-03-30T00:19:29.712Z,16.90
2023-03-30T00:21:58.648Z,16.90
2023-03-30T00:24:28.826Z,16.80
2023-03-30T00:26:57.624Z,16.80
2023-03-30T00:29:26.691Z,16.80
2023-03-30T00:31:55.719Z,16.80
2023-03-30T00:34:25.723Z,16.70
2023-03-30T00:36:54.647Z,16.60
2023-03-30T00:39:26.671Z,16.60
2023-03-30T00:41:56.737Z,16.60
2023-03-30T00:45:14.570Z,16.60
2023-03-30T00:47:46.556Z,16.70
2023-03-30T00:50:16.854Z,16.60
2023-03-30T00:52:47.454Z,16.60
2023-03-30T00:55:16.305Z,16.60
2023-03-30T00:57:47.043Z,16.50
2023-03-30T01:00:17.408Z,16.50
2023-03-30T01:02:51.648Z,16.40
2023-03-30T01:05:21.662Z,16.40
2023-03-30T01:07:50.606Z,16.40
2023-03-30T01:10:20.048Z,16.40
2023-03-30T01:12:50.490Z,16.40
2023-03-30T01:15:19.628Z,16.40
2023-03-30T01:18:05.225Z,16.40
2023-03-30T01:21:01.570Z,16.40
2023-03-30T01:24:08.654Z,16.30
2023-03-30T01:26:55.448Z,16.30
2023-03-30T01:29:53.443Z,16.30
2023-03-30T01:32:49.892Z,16.30
2023-03-30T01:35:58.827Z,16.20
2023-03-30T01:38:55.753Z,16.20
2023-03-30T01:41:34.940Z,16.20
2023-03-30T01:44:11.411Z,16.20
2023-03-30T01:46:46.108Z,16.10
2023-03-30T01:49:23.332Z,16.10
2023-03-30T01:52:02.636Z,16.10
2023-03-30T01:54:35.996Z,16.00
2023-03-30T01:57:08.712Z,16.00
2023-03-30T01:59:44.125Z,16.00
2023-03-30T02:02:16.267Z,16.10
2023-03-30T02:04:46.396Z,16.10
2023-03-30T02:07:19.297Z,16.00
2023-03-30T02:09:54.579Z,16.00
2023-03-30T02:12:24.933Z,16.00
2023-03-30T02:14:55.061Z,16.00
2023-03-30T02:17:24.862Z,16.10
2023-03-30T02:19:56.989Z,16.10
2023-03-30T02:22:29.480Z,16.10
2023-03-30T02:25:00.389Z,16.10
2023-03-30T02:27:29.523Z,16.10
2023-03-30T02:29:58.410Z,16.20
2023-03-30T02:32:29.514Z,16.20
2023-03-30T02:35:32.056Z,16.30
2023-03-30T02:38:32.410Z,16.20
2023-03-30T02:41:14.823Z,16.10
2023-03-30T02:43:54.225Z,16.10
2023-03-30T02:46:53.603Z,16.00
2023-03-30T02:49:34.171Z,16.10
2023-03-30T02:52:14.802Z,16.10
2023-03-30T02:54:51.982Z,16.10
2023-03-30T02:57:32.227Z,16.20
2023-03-30T03:00:27.712Z,16.10
2023-03-30T03:03:01.809Z,16.10
2023-03-30T03:05:33.961Z,16.10
2023-03-30T03:08:16.003Z,16.10
2023-03-30T03:10:48.062Z,16.10
2023-03-30T03:13:20.975Z,16.00
2023-03-30T03:15:52.926Z,16.00
2023-03-30T03:18:23.732Z,16.00
2023-03-30T03:20:53.223Z,15.90
2023-03-30T03:23:25.062Z,16.00
2023-03-30T03:25:56.965Z,15.90
2023-03-30T03:28:27.370Z,15.90
2023-03-30T03:31:03.598Z,15.90
2023-03-30T03:33:33.236Z,15.90
2023-03-30T03:36:17.494Z,15.90
2023-03-30T03:38:50.778Z,15.80
2023-03-30T03:41:19.688Z,15.80
2023-03-30T03:43:50.095Z,15.80
2023-03-30T03:46:20.809Z,15.80
2023-03-30T03:48:49.710Z,15.90
2023-03-30T03:51:18.557Z,15.80
2023-03-30T03:53:48.364Z,15.80
2023-03-30T03:56:17.148Z,15.80
2023-03-30T03:58:46.071Z,16.00
2023-03-30T04:01:16.531Z,16.00
2023-03-30T04:03:45.350Z,16.00
2023-03-30T04:06:15.511Z,15.90
2023-03-30T04:08:45.269Z,15.90
2023-03-30T04:11:22.672Z,15.80
2023-03-30T04:14:10.281Z,15.60
2023-03-30T04:16:58.960Z,15.60
2023-03-30T04:19:56.527Z,15.60
2023-03-30T04:22:42.214Z,15.60
2023-03-30T04:25:29.424Z,15.50
2023-03-30T04:28:37.227Z,15.60
2023-03-30T04:31:24.600Z,15.60
2023-03-30T04:34:24.174Z,15.60
2023-03-30T04:36:54.285Z,15.50
2023-03-30T04:39:57.794Z,15.40
2023-03-30T04:42:34.135Z,15.40
2023-03-30T04:45:21.841Z,15.50
2023-03-30T04:48:09.353Z,15.50
2023-03-30T04:53:49.333Z,15.40
2023-03-30T04:56:36.449Z,15.00
2023-03-30T04:59:23.657Z,14.90
2023-03-30T05:02:04.721Z,14.90
2023-03-30T05:04:45.039Z,14.80
2023-03-30T05:07:24.966Z,14.90
2023-03-30T05:10:11.649Z,15.00
2023-03-30T05:12:48.712Z,14.90
2023-03-30T05:15:35.921Z,14.90
2023-03-30T05:18:04.836Z,14.90
2023-03-30T05:20:48.024Z,14.90
2023-03-30T05:23:36.182Z,14.90
2023-03-30T05:26:29.307Z,14.80
2023-03-30T05:29:17.343Z,14.90
2023-03-30T05:32:05.133Z,14.80
2023-03-30T05:34:52.424Z,14.70
2023-03-30T05:37:30.087Z,14.60
2023-03-30T05:40:38.119Z,14.40
2023-03-30T05:43:09.327Z,14.20
2023-03-30T05:46:11.678Z,14.20
2023-03-30T05:48:52.554Z,14.00
2023-03-30T05:51:32.803Z,14.00
2023-03-30T05:54:28.009Z,14.00
2023-03-30T05:57:12.544Z,14.00
2023-03-30T05:59:51.118Z,14.00
2023-03-30T06:02:28.464Z,14.00
2023-03-30T06:05:04.065Z,14.20
2023-03-30T06:07:33.855Z,14.20
2023-03-30T06:10:03.253Z,14.20
2023-03-30T06:12:33.644Z,14.30
2023-03-30T06:15:05.291Z,14.20
2023-03-30T06:17:45.008Z,14.30
2023-03-30T06:20:14.299Z,14.30
2023-03-30T06:22:46.981Z,14.30
2023-03-30T06:25:21.202Z,14.40
2023-03-30T06:27:50.101Z,14.40
2023-03-30T06:30:21.012Z,14.40
2023-03-30T06:32:53.920Z,14.30
2023-03-30T06:35:28.914Z,14.40
2023-03-30T06:37:58.889Z,14.20
2023-03-30T06:40:27.852Z,14.20
2023-03-30T06:42:58.620Z,14.00
2023-03-30T06:45:31.617Z,14.00
2023-03-30T06:48:00.561Z,13.90
2023-03-30T06:50:29.646Z,14.00
2023-03-30T06:53:17.162Z,14.00
2023-03-30T06:55:53.420Z,14.00
2023-03-30T06:58:23.289Z,14.00
2023-03-30T07:00:54.678Z,13.90
2023-03-30T07:03:42.516Z,13.90
2023-03-30T07:06:32.416Z,13.90
2023-03-30T07:09:01.685Z,13.90
2023-03-30T07:11:35.062Z,14.00
2023-03-30T07:14:05.537Z,14.00
2023-03-30T07:16:38.395Z,14.10
2023-03-30T07:19:07.631Z,14.20
2023-03-30T07:21:37.069Z,14.20
2023-03-30T07:24:08.282Z,14.30
2023-03-30T07:26:38.594Z,14.30
2023-03-30T07:29:10.688Z,14.40
2023-03-30T07:31:44.944Z,14.40
2023-03-30T07:34:17.649Z,14.50
2023-03-30T07:36:54.466Z,14.60
2023-03-30T07:39:25.151Z,14.60
2023-03-30T07:41:54.125Z,14.60
2023-03-30T07:44:24.213Z,14.70
2023-03-30T07:46:54.457Z,14.80
2023-03-30T07:49:27.637Z,14.90
2023-03-30T07:51:56.475Z,14.90
2023-03-30T07:54:44.710Z,14.80
2023-03-30T07:57:18.716Z,14.60
2023-03-30T07:59:47.736Z,14.60
2023-03-30T08:02:44.973Z,14.50
2023-03-30T08:05:19.067Z,14.50
2023-03-30T08:08:08.354Z,14.50
2023-03-30T08:10:38.032Z,14.50
2023-03-30T08:13:07.089Z,14.50
2023-03-30T08:15:36.000Z,14.30
2023-03-30T08:18:08.453Z,14.40
2023-03-30T08:20:38.613Z,14.20
2023-03-30T08:23:07.905Z,14.10
2023-03-30T08:25:37.357Z,14.10
2023-03-30T08:28:06.909Z,14.20
2023-03-30T08:30:35.895Z,14.20
2023-03-30T08:33:06.171Z,14.10
2023-03-30T08:35:35.492Z,14.20
2023-03-30T08:38:04.443Z,14.20
2023-03-30T08:40:33.626Z,14.20
2023-03-30T08:43:32.675Z,14.20
2023-03-30T08:46:02.989Z,14.20
2023-03-30T08:48:37.703Z,14.10
2023-03-30T08:51:14.308Z,14.20
2023-03-30T08:53:43.600Z,14.20
2023-03-30T08:56:18.230Z,14.30
2023-03-30T08:58:56.059Z,14.30
2023-03-30T09:01:34.795Z,14.40
2023-03-30T09:04:16.827Z,14.40
2023-03-30T09:06:51.990Z,14.60
2023-03-30T09:09:23.857Z,15.00
2023-03-30T09:11:57.819Z,15.50
2023-03-30T09:14:34.897Z,15.70
2023-03-30T09:17:09.885Z,16.00
2023-03-30T09:19:52.022Z,16.10
2023-03-30T09:22:21.892Z,16.20
2023-03-30T09:24:51.839Z,16.10
2023-03-30T09:27:27.126Z,15.90
2023-03-30T09:30:02.564Z,15.90
2023-03-30T09:32:34.518Z,15.80
2023-03-30T09:35:12.657Z,15.80
2023-03-30T09:37:41.571Z,15.40
2023-03-30T09:40:26.901Z,15.50
2023-03-30T09:43:05.726Z,15.80
2023-03-30T09:45:35.612Z,15.60
2023-03-30T09:48:07.026Z,15.30
2023-03-30T09:50:42.135Z,14.90
2023-03-30T09:53:21.239Z,14.80
2023-03-30T09:56:01.230Z,15.10
2023-03-30T09:58:31.965Z,14.90
2023-03-30T10:01:07.087Z,14.90
2023-03-30T10:03:37.241Z,14.80
2023-03-30T10:06:13.013Z,14.80
2023-03-30T10:08:45.048Z,14.40
2023-03-30T10:11:13.918Z,14.30
2023-03-30T10:13:44.721Z,14.20
2023-03-30T10:16:24.725Z,14.10
2023-03-30T10:18:55.698Z,14.10
2023-03-30T10:21:28.429Z,14.00
2023-03-30T10:24:04.034Z,14.00
2023-03-30T10:26:34.656Z,13.90
2023-03-30T10:29:05.752Z,13.90
2023-03-30T10:31:38.067Z,13.90
2023-03-30T10:34:16.346Z,13.90
2023-03-30T10:36:51.292Z,14.00
2023-03-30T10:39:25.541Z,13.90
2023-03-30T10:41:57.907Z,14.00
2023-03-30T10:44:33.019Z,14.10
2023-03-30T10:47:16.307Z,14.30
2023-03-30T10:49:53.848Z,14.40
2023-03-30T10:52:30.978Z,14.50
2023-03-30T10:55:08.953Z,14.60
2023-03-30T10:57:46.592Z,14.90
2023-03-30T11:00:26.603Z,15.20
2023-03-30T11:03:02.531Z,15.50
2023-03-30T11:05:35.867Z,15.60
2023-03-30T11:08:08.718Z,15.30
2023-03-30T11:10:42.131Z,15.30
2023-03-30T11:13:18.806Z,15.40
2023-03-30T11:15:50.985Z,15.30
2023-03-30T11:18:25.501Z,15.30
2023-03-30T11:21:01.469Z,15.50
2023-03-30T11:23:40.127Z,15.70
2023-03-30T11:26:12.559Z,15.70
2023-03-30T11:29:15.588Z,15.80
2023-03-30T11:31:55.158Z,15.80
2023-03-30T11:34:32.565Z,15.80
2023-03-30T11:37:09.563Z,15.70
2023-03-30T11:39:46.732Z,15.80
2023-03-30T11:42:20.050Z,16.00
2023-03-30T11:44:49.104Z,16.20
2023-03-30T11:47:35.652Z,16.40
2023-03-30T11:50:27.514Z,16.60
2023-03-30T11:53:07.696Z,16.80
2023-03-30T11:55:48.639Z,17.10
2023-03-30T11:58:28.076Z,17.30
2023-03-30T12:01:06.607Z,17.30
2023-03-30T12:03:43.350Z,17.00
2023-03-30T12:06:29.308Z,16.70
2023-03-30T12:09:28.952Z,16.80
2023-03-30T12:12:06.316Z,17.00
2023-03-30T12:14:44.570Z,17.40
2023-03-30T12:17:26.911Z,17.90
2023-03-30T12:20:00.968Z,18.00
2023-03-30T12:22:36.206Z,18.00
2023-03-30T12:25:17.466Z,18.00
2023-03-30T12:28:04.756Z,18.20
2023-03-30T12:30:45.168Z,18.10
2023-03-30T12:33:19.451Z,18.10
2023-03-30T12:36:00.185Z,18.30
2023-03-30T12:38:38.593Z,18.20
2023-03-30T12:41:15.398Z,18.00
2023-03-30T12:44:03.603Z,18.10
2023-03-30T12:46:41.988Z,18.20
2023-03-30T12:49:20.609Z,18.30
2023-03-30T12:51:56.661Z,18.30
2023-03-30T12:55:03.931Z,18.30
2023-03-30T12:57:43.546Z,18.50
2023-03-30T13:00:47.899Z,18.50
2023-03-30T13:03:30.564Z,18.50
2023-03-30T13:06:02.123Z,18.50
2023-03-30T13:08:34.192Z,18.50
2023-03-30T13:11:12.974Z,18.40
2023-03-30T13:13:51.721Z,18.20
2023-03-30T13:17:03.830Z,18.30
2023-03-30T13:19:48.613Z,18.20
2023-03-30T13:22:28.300Z,18.10
2023-03-30T13:25:00.820Z,18.00
2023-03-30T13:27:33.993Z,17.90
2023-03-30T13:30:06.489Z,18.00
2023-03-30T13:32:56.360Z,18.20
2023-03-30T13:35:33.207Z,18.20
2023-03-30T13:38:34.401Z,18.40
2023-03-30T13:41:21.373Z,18.40
2023-03-30T13:44:05.554Z,18.30
2023-03-30T13:46:41.441Z,18.10
2023-03-30T13:49:23.250Z,17.90
2023-03-30T13:51:54.731Z,17.50
2023-03-30T13:54:28.329Z,17.30
2023-03-30T13:57:02.502Z,17.20
2023-03-30T13:59:34.131Z,17.10
2023-03-30T14:02:04.047Z,17.10
2023-03-30T14:04:37.490Z,17.30
2023-03-30T14:07:16.162Z,17.60
2023-03-30T14:09:45.584Z,17.70
2023-03-30T14:12:15.780Z,17.70
2023-03-30T14:14:47.474Z,17.80
2023-03-30T14:17:20.143Z,17.90
2023-03-30T14:20:02.618Z,17.90
2023-03-30T14:22:33.601Z,18.00
2023-03-30T14:25:05.049Z,18.30
2023-03-30T14:27:36.278Z,18.10
2023-03-30T14:30:18.987Z,17.70
2023-03-30T14:32:48.100Z,17.40
2023-03-30T14:35:19.617Z,17.30
2023-03-30T14:37:52.401Z,16.90
2023-03-30T14:40:24.994Z,16.60
2023-03-30T14:42:53.797Z,16.50
2023-03-30T14:45:22.879Z,16.40
2023-03-30T14:47:56.389Z,16.30
2023-03-30T14:50:28.058Z,15.70
2023-03-30T14:52:57.450Z,15.40
2023-03-30T14:55:27.712Z,15.30
2023-03-30T14:57:57.354Z,15.30
2023-03-30T15:00:26.373Z,15.30
2023-03-30T15:03:00.498Z,15.20
2023-03-30T15:05:36.918Z,15.10
2023-03-30T15:08:21.943Z,15.20
2023-03-30T15:10:54.917Z,15.50
2023-03-30T15:13:30.198Z,15.60
2023-03-30T15:16:02.059Z,15.60
2023-03-30T15:18:33.129Z,15.40
2023-03-30T15:21:03.731Z,15.30
2023-03-30T15:23:36.931Z,15.30
2023-03-30T15:26:07.818Z,15.40
2023-03-30T15:28:43.540Z,15.40
2023-03-30T15:31:13.973Z,15.40
2023-03-30T15:33:45.438Z,15.60
2023-03-30T15:36:20.623Z,15.90
2023-03-30T15:38:51.413Z,16.10
2023-03-30T15:41:24.813Z,16.20
2023-03-30T15:43:59.409Z,16.50
2023-03-30T15:46:31.793Z,16.60
2023-03-30T15:49:01.104Z,16.50
2023-03-30T15:51:37.885Z,16.60
2023-03-30T15:54:13.977Z,16.70
2023-03-30T15:56:49.200Z,16.70
2023-03-30T15:59:21.821Z,16.70
2023-03-30T16:01:54.208Z,16.60
2023-03-30T16:04:26.226Z,16.50
2023-03-30T16:06:57.595Z,16.50
2023-03-30T16:09:27.392Z,16.50
2023-03-30T16:11:59.224Z,16.70
2023-03-30T16:14:28.222Z,16.70
2023-03-30T16:16:57.206Z,16.40
2023-03-30T16:19:26.159Z,16.30
2023-03-30T16:21:55.555Z,16.30
2023-03-30T16:24:27.827Z,16.10
2023-03-30T16:26:56.856Z,16.10
2023-03-30T16:29:27.029Z,16.10
2023-03-30T16:31:56.001Z,16.10
2023-03-30T16:34:26.030Z,16.10
2023-03-30T16:36:55.264Z,16.10
2023-03-30T16:39:25.793Z,16.10
2023-03-30T16:41:56.933Z,16.00
2023-03-30T16:44:26.615Z,15.90
2023-03-30T16:46:55.805Z,15.90
2023-03-30T16:49:26.090Z,16.00
2023-03-30T16:51:57.845Z,16.00
2023-03-30T16:54:32.446Z,16.10
2023-03-30T16:57:03.480Z,15.90
2023-03-30T16:59:34.244Z,15.90
2023-03-30T17:02:03.499Z,15.80
2023-03-30T17:04:32.480Z,15.60
2023-03-30T17:07:01.777Z,15.50
2023-03-30T17:09:30.887Z,15.50
2023-03-30T17:11:59.839Z,15.60
2023-03-30T17:14:30.270Z,15.60
2023-03-30T17:16:59.324Z,15.60
2023-03-30T17:19:29.190Z,15.70
2023-03-30T17:21:58.048Z,15.70
2023-03-30T17:24:26.897Z,15.70
2023-03-30T17:26:56.397Z,15.80
2023-03-30T17:29:25.224Z,15.80
2023-03-30T17:31:55.569Z,15.70
2023-03-30T17:34:24.380Z,15.60
2023-03-30T17:36:53.351Z,15.60
2023-03-30T17:39:22.139Z,15.60
2023-03-30T17:41:51.063Z,15.40
2023-03-30T17:44:20.030Z,15.40
2023-03-30T17:46:49.093Z,15.40
2023-03-30T17:49:19.564Z,15.30
2023-03-30T17:51:48.488Z,15.10
2023-03-30T17:54:17.399Z,14.90
2023-03-30T17:56:47.487Z,14.80
2023-03-30T17:59:17.400Z,14.80
2023-03-30T18:01:46.279Z,14.80
2023-03-30T18:04:15.321Z,14.70
2023-03-30T18:06:48.786Z,14.60
2023-03-30T18:09:17.672Z,14.50
2023-03-30T18:11:46.767Z,14.50
2023-03-30T18:14:15.639Z,14.40
2023-03-30T18:16:45.994Z,14.30
2023-03-30T18:19:15.056Z,14.30
2023-03-30T18:21:45.396Z,14.20
2023-03-30T18:24:15.399Z,14.10
2023-03-30T18:26:45.976Z,14.10
2023-03-30T18:29:20.373Z,14.10
2023-03-30T18:31:50.100Z,14.00
2023-03-30T18:34:19.694Z,14.00
2023-03-30T18:36:49.896Z,14.00
2023-03-30T18:39:21.470Z,14.00
2023-03-30T18:41:50.499Z,14.10
2023-03-30T18:44:19.380Z,14.00
2023-03-30T18:46:52.345Z,14.00
2023-03-30T18:49:23.766Z,13.90
2023-03-30T18:51:54.330Z,13.90
2023-03-30T18:54:23.474Z,13.90
2023-03-30T18:56:52.365Z,13.90
2023-03-30T18:59:23.023Z,13.90
2023-03-30T19:01:51.985Z,13.80
2023-03-30T19:04:21.507Z,13.90
2023-03-30T19:06:53.110Z,14.00
2023-03-30T19:09:36.352Z,14.00
2023-03-30T19:12:14.724Z,14.10
2023-03-30T19:14:43.873Z,14.10
2023-03-30T19:17:15.774Z,14.20
2023-03-30T19:19:44.826Z,14.20
2023-03-30T19:22:13.853Z,14.20
2023-03-30T19:24:44.180Z,14.20
2023-03-30T19:27:15.565Z,14.20
2023-03-30T19:29:44.662Z,14.20
2023-03-30T19:32:13.908Z,14.10
2023-03-30T19:34:42.886Z,14.00
2023-03-30T19:37:14.547Z,13.90
2023-03-30T19:39:46.596Z,13.80
2023-03-30T19:42:15.678Z,13.80
2023-03-30T19:44:44.646Z,13.70
2023-03-30T19:47:13.512Z,13.60
2023-03-30T19:49:42.820Z,13.60
2023-03-30T19:52:11.984Z,13.60
2023-03-30T19:54:40.963Z,13.50
2023-03-30T19:57:12.578Z,13.50
2023-03-30T19:59:41.726Z,13.50
2023-03-30T20:02:13.337Z,13.40
2023-03-30T20:04:45.639Z,13.40
2023-03-30T20:07:15.816Z,13.40
2023-03-30T20:09:47.683Z,13.40
2023-03-30T20:12:18.271Z,13.40
2023-03-30T20:14:47.442Z,13.40
2023-03-30T20:17:18.215Z,13.40
2023-03-30T20:19:47.647Z,13.30
2023-03-30T20:22:16.603Z,13.30
2023-03-30T20:24:48.630Z,13.30
2023-03-30T20:27:19.006Z,13.30
2023-03-30T20:29:47.959Z,13.40
2023-03-30T20:32:21.598Z,13.40
2023-03-30T20:34:50.800Z,13.40
2023-03-30T20:37:19.876Z,13.40
2023-03-30T20:39:50.042Z,13.50
2023-03-30T20:42:28.419Z,13.50
2023-03-30T20:44:59.687Z,13.60
2023-03-30T20:47:31.049Z,13.50
2023-03-30T20:50:00.569Z,13.40
2023-03-30T20:52:29.615Z,13.40
2023-03-30T20:54:59.715Z,13.40
2023-03-30T20:57:29.989Z,13.30
2023-03-30T21:00:00.727Z,13.30
2023-03-30T21:02:31.554Z,13.30
2023-03-30T21:05:00.843Z,13.20
2023-03-30T21:07:29.900Z,13.30
2023-03-30T21:09:59.153Z,13.40
2023-03-30T21:12:30.244Z,13.40
2023-03-30T21:15:02.838Z,13.50
2023-03-30T21:17:31.974Z,13.60
2023-03-30T21:20:04.356Z,13.60
2023-03-30T21:22:33.804Z,13.60
2023-03-30T21:25:02.928Z,13.70
2023-03-30T21:27:33.705Z,13.70
2023-03-30T21:30:05.372Z,13.70
2023-03-30T21:32:34.240Z,13.80
2023-03-30T21:35:08.010Z,13.70
2023-03-30T21:37:37.759Z,13.80
2023-03-30T21:40:08.744Z,13.90
2023-03-30T21:42:39.076Z,13.90
2023-03-30T21:45:11.714Z,14.00
2023-03-30T21:47:42.471Z,14.00
2023-03-30T21:50:12.827Z,13.90
2023-03-30T21:52:41.903Z,13.90
2023-03-30T21:55:11.648Z,13.90
2023-03-30T21:57:42.092Z,13.80
2023-03-30T22:00:15.629Z,13.70
2023-03-30T22:02:44.470Z,13.60
2023-03-30T22:05:13.622Z,13.70
2023-03-30T22:07:45.438Z,13.80
2023-03-30T22:10:14.284Z,13.90
2023-03-30T22:12:44.757Z,13.90
2023-03-30T22:15:13.741Z,13.90
2023-03-30T22:17:46.320Z,13.80
2023-03-30T22:20:16.848Z,13.70
2023-03-30T22:22:46.137Z,13.50
2023-03-30T22:25:16.794Z,13.60
2023-03-30T22:27:47.270Z,13.60
2023-03-30T22:30:16.401Z,13.60
2023-03-30T22:32:45.494Z,13.60
2023-03-30T22:35:14.411Z,13.60
2023-03-30T22:37:43.421Z,13.60
2023-03-30T22:40:13.697Z,13.50
2023-03-30T22:42:42.485Z,13.50
2023-03-30T22:45:13.323Z,13.50
2023-03-30T22:47:42.417Z,13.40
2023-03-30T22:50:12.163Z,13.40
2023-03-30T22:52:41.259Z,13.30
2023-03-30T22:55:10.809Z,13.30
2023-03-30T22:57:39.587Z,13.30
2023-03-30T23:00:10.266Z,13.40
2023-03-30T23:02:41.020Z,13.40
2023-03-30T23:05:13.183Z,13.40
2023-03-30T23:07:44.076Z,13.40
2023-03-30T23:10:15.873Z,13.50
2023-03-30T23:12:45.226Z,13.50
2023-03-30T23:15:15.149Z,13.50
2023-03-30T23:17:47.606Z,13.50
2023-03-30T23:20:16.372Z,13.40
2023-03-30T23:22:45.426Z,13.50
2023-03-30T23:25:15.721Z,13.50
2023-03-30T23:27:44.656Z,13.60
2023-03-30T23:30:14.470Z,13.60
2023-03-30T23:32:44.820Z,13.70
2023-03-30T23:35:13.538Z,13.70
2023-03-30T23:37:45.497Z,13.60
2023-03-30T23:40:14.516Z,13.60
2023-03-30T23:42:43.328Z,13.60
2023-03-30T23:45:12.462Z,13.70
2023-03-30T23:47:43.977Z,13.80
2023-03-30T23:50:15.342Z,13.80
2023-03-30T23:52:44.124Z,13.80
2023-03-30T23:55:13.216Z,13.90
2023-03-30T23:57:41.897Z,13.90
